Time;durP1;ratioP1;P1;durP2;ratioP2;P2;SDS_P1;SDS_P2;PMS_P1;PMS_P2;Temp;Humidity;BMP_temperature;BMP_pressure;BME280_temperature;BME280_humidity;BME280_pressure;Samples;Min_cycle;Max_cycle;Signal;HPM_P1;HPM_P2
2023/08/21 00:03:29;;;;;;;15.18;10.73;;;;;;;-145.68;100.00;73553.75;10452699;28;20192;-75
2023/08/21 00:08:30;;;;;;;11.77;10.35;;;;;;;-145.68;100.00;73541.78;10452206;28;20195;-74
2023/08/21 00:13:30;;;;;;;11.73;10.02;;;;;;;-145.68;100.00;73549.75;10452627;28;20215;-74
2023/08/21 00:18:30;;;;;;;12.88;10.85;;;;;;;-145.68;100.00;73557.75;10451417;28;20239;-75
2023/08/21 00:23:31;;;;;;;14.02;10.70;;;;;;;-145.68;100.00;73547.75;10452018;28;20675;-75
2023/08/21 00:28:33;;;;;;;11.45;10.10;;;;;;;-145.68;100.00;73557.75;10451679;28;20263;-75
2023/08/21 00:33:33;;;;;;;11.55;10.40;;;;;;;-145.68;100.00;73557.75;10451424;28;20184;-75
2023/08/21 00:38:34;;;;;;;15.93;10.63;;;;;;;-145.68;100.00;73561.75;10433624;28;20224;-74
2023/08/21 00:43:34;;;;;;;13.30;10.27;;;;;;;-145.68;100.00;73567.75;10452771;28;20184;-73
2023/08/21 00:48:35;;;;;;;15.15;10.30;;;;;;;-145.68;100.00;73571.75;10448949;28;20240;-74
2023/08/21 00:53:36;;;;;;;12.68;10.63;;;;;;;-145.68;100.00;73573.75;10429698;28;20200;-74
2023/08/21 00:58:36;;;;;;;15.85;10.90;;;;;;;-145.68;100.00;73583.75;10419330;28;20266;-76
2023/08/21 01:03:37;;;;;;;11.30;10.07;;;;;;;-145.68;100.00;73597.75;10452775;28;20547;-74
2023/08/21 01:08:50;;;;;;;14.05;11.15;;;;;;;-145.68;100.00;73605.72;10434041;28;20237;-75
2023/08/21 01:14:07;;;;;;;13.30;10.65;;;;;;;-145.68;100.00;73609.72;10433858;28;20549;-75
2023/08/21 01:19:19;;;;;;;13.25;11.30;;;;;;;-145.68;100.00;73619.72;10434080;28;20223;-76
2023/08/21 01:24:20;;;;;;;15.60;11.73;;;;;;;-145.68;100.00;73631.72;10433855;28;20637;-75
2023/08/21 01:29:20;;;;;;;14.13;11.30;;;;;;;-145.68;100.00;73643.72;10451636;28;20229;-75
2023/08/21 01:34:21;;;;;;;17.13;11.95;;;;;;;-145.68;100.00;73663.69;10433593;28;20659;-74
2023/08/21 01:39:22;;;;;;;14.68;11.50;;;;;;;-145.68;100.00;73651.72;10449963;28;20710;-75
2023/08/21 01:44:23;;;;;;;16.52;12.00;;;;;;;-145.68;100.00;73647.72;10433212;28;20196;-74
2023/08/21 01:49:23;;;;;;;13.10;11.40;;;;;;;-145.68;100.00;73645.72;10450977;28;20204;-75
2023/08/21 01:54:24;;;;;;;11.82;10.63;;;;;;;-145.68;100.00;73639.72;10451213;28;20191;-75
2023/08/21 01:59:24;;;;;;;14.20;12.13;;;;;;;-145.68;100.00;73637.72;10450636;28;20593;-75
2023/08/21 02:04:25;;;;;;;16.58;12.27;;;;;;;-145.68;100.00;73647.72;10433072;28;20200;-74
2023/08/21 02:09:25;;;;;;;12.48;11.27;;;;;;;-145.68;100.00;73655.69;10478699;28;20200;-75
2023/08/21 02:14:26;;;;;;;13.00;11.68;;;;;;;-145.68;100.00;73659.69;10541616;28;20594;-75
2023/08/21 02:19:26;;;;;;;14.73;11.57;;;;;;;-145.68;100.00;73669.69;10523464;28;20347;-75
2023/08/21 02:24:26;;;;;;;13.90;12.05;;;;;;;-145.68;100.00;73673.69;10541131;28;20603;-75
2023/08/21 02:29:27;;;;;;;17.15;13.18;;;;;;;-145.68;100.00;73687.69;10523080;28;20205;-75
2023/08/21 02:34:27;;;;;;;16.65;13.75;;;;;;;-145.68;100.00;73685.69;10540806;28;20271;-75
2023/08/21 02:39:28;;;;;;;15.40;12.40;;;;;;;-145.68;100.00;73685.69;10540918;28;20214;-75
2023/08/21 02:44:28;;;;;;;15.65;12.05;;;;;;;-145.68;100.00;73673.69;10539431;28;20198;-75
2023/08/21 02:49:28;;;;;;;13.50;11.52;;;;;;;-145.68;100.00;73667.69;10539348;28;20209;-75
2023/08/21 02:54:29;;;;;;;15.80;12.13;;;;;;;-145.68;100.00;73671.69;10539519;28;20639;-75
2023/08/21 02:59:29;;;;;;;12.80;11.38;;;;;;;-145.68;100.00;73697.69;10539823;28;20230;-75
2023/08/21 03:04:30;;;;;;;14.55;11.57;;;;;;;-145.68;100.00;73711.66;10496661;28;20223;-75
2023/08/21 03:09:30;;;;;;;13.90;11.88;;;;;;;-145.68;100.00;73715.66;10494067;28;20180;-75
2023/08/21 03:14:30;;;;;;;19.90;12.32;;;;;;;-145.68;100.00;73731.66;10475640;28;20186;-76
2023/08/21 03:19:31;;;;;;;15.43;11.77;;;;;;;-145.68;100.00;73727.66;10475059;28;20222;-75
2023/08/21 03:24:32;;;;;;;14.25;12.23;;;;;;;-145.68;100.00;73731.66;10475735;28;20712;-75
2023/08/21 03:29:32;;;;;;;15.23;12.13;;;;;;;-145.68;100.00;73727.66;10474960;28;20191;-76
2023/08/21 03:34:33;;;;;;;15.30;12.10;;;;;;;-145.68;100.00;73739.66;10475395;28;20195;-75
2023/08/21 03:39:36;;;;;;;14.35;12.30;;;;;;;-145.68;100.00;73739.66;10474384;28;20219;-76
2023/08/21 03:44:38;;;;;;;14.10;12.65;;;;;;;-145.68;100.00;73739.66;10474532;28;20187;-76
2023/08/21 03:49:38;;;;;;;19.15;12.00;;;;;;;-145.68;100.00;73741.66;10474600;28;20247;-75
2023/08/21 03:54:39;;;;;;;15.82;11.85;;;;;;;-145.68;100.00;73737.66;10457558;28;20195;-76
2023/08/21 03:59:39;;;;;;;13.18;11.77;;;;;;;-145.68;100.00;73743.66;10473847;28;20227;-76
2023/08/21 04:04:39;;;;;;;14.93;11.43;;;;;;;-145.68;100.00;73747.66;10494872;28;20550;-75
2023/08/21 04:09:40;;;;;;;14.70;12.27;;;;;;;-145.68;100.00;73757.66;10495212;28;20186;-75
2023/08/21 04:14:40;;;;;;;14.93;12.40;;;;;;;-145.68;100.00;73753.66;10494951;28;20193;-75
2023/08/21 04:19:43;;;;;;;16.08;12.93;;;;;;;-145.68;100.00;73747.66;10476772;28;20222;-74
2023/08/21 04:24:44;;;;;;;18.85;12.35;;;;;;;-145.68;100.00;73743.66;10494906;28;20222;-75
2023/08/21 04:29:44;;;;;;;13.30;11.80;;;;;;;-145.68;100.00;73735.66;10475449;28;20199;-75
2023/08/21 04:34:45;;;;;;;17.23;12.63;;;;;;;-145.68;100.00;73739.66;10476601;28;20191;-75
2023/08/21 04:39:45;;;;;;;12.73;10.85;;;;;;;-145.68;100.00;73709.69;10476005;28;20249;-74
2023/08/21 04:44:46;;;;;;;13.32;11.93;;;;;;;-145.68;100.00;73707.69;10493866;28;20641;-75
2023/08/21 04:49:48;;;;;;;12.25;10.95;;;;;;;-145.68;100.00;73705.69;10475824;28;20244;-75
2023/08/21 04:54:50;;;;;;;12.43;11.15;;;;;;;-145.68;100.00;73699.69;10475513;28;20183;-75
2023/08/21 04:59:51;;;;;;;13.57;11.88;;;;;;;-145.68;100.00;73691.69;10475864;28;20218;-75
2023/08/21 05:05:23;;;;;;;14.23;11.82;;;;;;;-145.68;100.00;73693.69;10473534;28;20282;-76
2023/08/21 05:10:41;;;;;;;15.85;12.20;;;;;;;-145.68;100.00;73677.69;10447111;28;20670;-76
2023/08/21 05:16:05;;;;;;;15.68;11.50;;;;;;;-145.68;100.00;73657.69;10473310;28;20197;-76
2023/08/21 05:21:32;;;;;;;11.70;9.52;;;;;;;-145.68;100.00;73635.72;10452524;28;20207;-76
2023/08/21 05:26:54;;;;;;;12.18;10.68;;;;;;;-145.68;100.00;73617.72;10489121;28;20536;-74
2023/08/21 05:32:10;;;;;;;14.30;11.77;;;;;;;-145.68;100.00;73593.75;10473225;28;20675;-74
2023/08/21 05:37:45;;;;;;;14.55;11.25;;;;;;;-145.68;100.00;73553.75;10471113;28;20226;-73
2023/08/21 05:43:01;;;;;;;12.57;10.10;;;;;;;-145.68;100.00;73517.78;10476661;28;20198;-74
2023/08/21 05:48:02;;;;;;;11.75;10.32;;;;;;;-145.68;100.00;73467.81;10480462;28;20249;-76
2023/08/21 05:53:04;;;;;;;11.80;9.30;;;;;;;-145.68;100.00;73397.84;10481302;28;20588;-74
2023/08/21 05:58:06;;;;;;;11.07;9.68;;;;;;;-145.68;100.00;73295.94;10464402;28;20264;-75
2023/08/21 06:03:06;;;;;;;9.93;8.35;;;;;;;-145.68;100.00;73184.00;10498838;28;20183;-74
2023/08/21 06:08:36;;;;;;;13.13;8.27;;;;;;;-145.68;100.00;73088.06;10479687;28;20191;-75
2023/08/21 06:13:36;;;;;;;11.10;8.13;;;;;;;-145.68;100.00;73062.09;10480724;28;20179;-74
2023/08/21 06:18:37;;;;;;;8.75;7.85;;;;;;;-145.68;99.28;72928.19;10505320;28;20620;-74
2023/08/21 06:23:37;;;;;;;11.02;7.43;;;;;;;-145.68;89.32;72834.25;10499981;28;20199;-73
2023/08/21 06:28:37;;;;;;;9.30;7.68;;;;;;;-145.68;85.33;72728.34;10480672;28;20191;-75
2023/08/21 06:33:38;;;;;;;8.57;7.03;;;;;;;-145.68;78.18;72658.38;10496951;28;20191;-75
2023/08/21 06:38:39;;;;;;;8.25;7.22;;;;;;;-145.68;70.96;72572.47;10476876;28;20203;-75
2023/08/21 06:43:41;;;;;;;7.97;6.65;;;;;;;-145.68;69.41;72568.47;10479279;28;20251;-75
2023/08/21 06:48:42;;;;;;;7.28;6.55;;;;;;;-145.68;66.35;72504.53;10462241;28;20228;-74
2023/08/21 06:53:42;;;;;;;7.13;6.40;;;;;;;-145.68;63.98;72420.59;10496075;28;20659;-74
2023/08/21 06:59:15;;;;;;;7.13;6.20;;;;;;;-145.68;61.23;72362.66;10496379;28;20211;-75
2023/08/21 07:04:18;;;;;;;8.05;6.47;;;;;;;-145.68;58.92;72328.69;10491043;28;20195;-75
2023/08/21 07:09:19;;;;;;;6.82;6.13;;;;;;;-145.68;60.44;72300.69;10478319;28;20184;-75
2023/08/21 07:14:19;;;;;;;9.73;6.28;;;;;;;-145.68;56.54;72200.78;10478261;28;20203;-74
2023/08/21 07:19:19;;;;;;;9.15;7.07;;;;;;;-145.68;58.53;72276.72;10495553;28;20246;-74
2023/08/21 07:24:20;;;;;;;8.93;6.53;;;;;;;-145.68;59.53;72244.75;10495343;28;20195;-75
2023/08/21 07:29:21;;;;;;;8.00;6.88;;;;;;;-145.68;54.96;72094.88;10494709;28;20607;-75
2023/08/21 07:34:21;;;;;;;7.77;6.97;;;;;;;-145.68;61.74;72346.66;10491780;28;20200;-74
2023/08/21 07:39:21;;;;;;;6.70;6.00;;;;;;;-145.68;60.20;72228.75;10493415;28;20481;-75
2023/08/21 07:44:22;;;;;;;9.13;6.80;;;;;;;-145.68;55.46;72208.78;10490618;28;20437;-75
2023/08/21 07:49:22;;;;;;;7.78;6.53;;;;;;;-145.68;60.88;72344.66;10491621;28;20622;-75
2023/08/21 07:54:23;;;;;;;8.70;7.80;;;;;;;-145.68;60.32;72408.59;10489009;28;20206;-75
2023/08/21 07:59:25;;;;;;;9.27;6.90;;;;;;;-145.68;57.14;72250.75;10492899;28;20469;-75
2023/08/21 08:04:25;;;;;;;9.43;7.55;;;;;;;-145.68;58.95;72364.63;10491070;28;20186;-75
2023/08/21 08:09:25;;;;;;;8.00;6.77;;;;;;;-145.68;56.79;72362.66;10490811;28;20191;-75
2023/08/21 08:14:26;;;;;;;7.95;7.15;;;;;;;-145.68;56.93;72284.72;10490808;28;20476;-75
2023/08/21 08:19:27;;;;;;;8.65;6.70;;;;;;;-145.68;58.02;72268.72;10531192;28;20214;-75
2023/08/21 08:24:28;;;;;;;9.60;6.95;;;;;;;-145.68;55.61;72300.69;10496668;28;20211;-75
2023/08/21 08:29:29;;;;;;;8.35;7.22;;;;;;;-145.68;59.77;72376.63;10490250;28;20271;-75
2023/08/21 08:34:29;;;;;;;9.70;7.07;;;;;;;-145.68;55.23;72260.72;10489599;28;20217;-76
2023/08/21 08:39:30;;;;;;;9.40;6.63;;;;;;;-145.68;55.24;72228.75;10489621;28;20217;-76
2023/08/21 08:44:30;;;;;;;8.27;6.63;;;;;;;-145.68;50.91;72104.88;10471860;28;20429;-75
2023/08/21 08:49:31;;;;;;;7.85;6.68;;;;;;;-145.68;49.63;72020.97;10471540;28;21019;-75
2023/08/21 08:54:33;;;;;;;9.48;6.45;;;;;;;-145.68;52.21;72170.81;10455950;28;20559;-75
2023/08/21 08:59:33;;;;;;;7.88;6.82;;;;;;;-145.68;53.18;72200.78;10462576;28;20218;-75
2023/08/21 09:04:33;;;;;;;7.72;6.70;;;;;;;-145.68;52.94;72296.69;10478027;28;20198;-75
2023/08/21 09:09:39;;;;;;;6.95;6.28;;;;;;;-145.68;52.57;72240.75;10472295;28;20265;-75
2023/08/21 09:14:43;;;;;;;8.80;6.40;;;;;;;-145.68;50.31;72092.91;10490961;28;20197;-76
2023/08/21 09:19:43;;;;;;;7.57;5.63;;;;;;;-145.68;46.31;71923.06;10488900;28;20226;-75
2023/08/21 09:25:06;;;;;;;8.05;5.60;;;;;;;-145.68;48.35;72018.97;10489558;28;20190;-74
2023/08/21 09:30:14;;;;;;;9.23;6.10;;;;;;;-145.68;48.98;72294.72;10489115;28;20198;-76
2023/08/21 09:35:14;;;;;;;7.97;6.05;;;;;;;-145.68;48.81;72160.81;10471613;28;20535;-75
2023/08/21 09:40:15;;;;;;;6.97;5.50;;;;;;;-145.68;48.25;72034.94;10527107;28;20218;-75
2023/08/21 09:45:22;;;;;;;9.68;6.40;;;;;;;-145.68;48.48;72110.88;10531424;28;20234;-75
2023/08/21 09:50:22;;;;;;;7.22;4.60;;;;;;;-145.68;47.33;72176.81;10493575;28;20319;-75
2023/08/21 09:55:25;;;;;;;5.85;4.68;;;;;;;-145.68;46.74;72094.88;10488155;28;20191;-75
2023/08/21 10:00:34;;;;;;;6.32;4.95;;;;;;;-145.68;41.21;71843.13;10453610;28;20207;-75
2023/08/21 10:05:36;;;;;;;7.93;5.03;;;;;;;-145.68;41.44;71809.16;10488130;28;20777;-75
2023/08/21 10:10:38;;;;;;;6.65;4.93;;;;;;;-145.68;41.77;71833.16;10486744;28;20191;-76
2023/08/21 10:15:39;;;;;;;10.13;4.47;;;;;;;-145.68;41.46;71715.28;10488160;28;20191;-75
2023/08/21 10:20:39;;;;;;;7.13;4.70;;;;;;;-145.68;43.35;71793.19;10487304;28;20219;-75
2023/08/21 10:25:42;;;;;;;6.70;4.50;;;;;;;-145.68;39.24;71499.50;10487714;28;20261;-75
2023/08/21 10:30:42;;;;;;;8.00;5.18;;;;;;;-145.68;38.97;71511.50;10493335;28;20437;-76
2023/08/21 10:35:43;;;;;;;7.97;4.63;;;;;;;-145.68;37.05;71371.66;10496008;28;20190;-76
2023/08/21 10:41:06;;;;;;;7.43;4.83;;;;;;;-145.68;38.96;71597.41;10495206;28;20487;-76
2023/08/21 10:46:08;;;;;;;6.30;4.57;;;;;;;-145.68;37.48;71369.66;10495138;28;20472;-74
2023/08/21 10:51:09;;;;;;;6.65;5.10;;;;;;;-145.68;38.13;71483.53;10495412;28;20633;-76
2023/08/21 10:56:09;;;;;;;6.43;5.38;;;;;;;-145.68;39.94;71659.34;10477094;28;20186;-76
2023/08/21 11:01:12;;;;;;;5.15;4.50;;;;;;;-145.68;37.71;71469.53;10495222;28;20218;-75
2023/08/21 11:06:13;;;;;;;5.82;4.35;;;;;;;-145.68;37.21;71425.59;10494488;28;20662;-76
2023/08/21 11:11:13;;;;;;;8.15;4.85;;;;;;;-145.68;38.71;71573.41;10492588;28;20183;-76
2023/08/21 11:16:14;;;;;;;7.32;4.57;;;;;;;-145.68;38.28;71575.41;10452887;28;20187;-76
2023/08/21 11:21:14;;;;;;;4.77;4.27;;;;;;;-145.68;39.63;71715.28;10454586;28;20218;-75
2023/08/21 11:26:14;;;;;;;5.40;4.70;;;;;;;-145.68;39.18;71553.44;10464556;28;20803;-76
2023/08/21 11:31:15;;;;;;;5.15;4.32;;;;;;;-145.68;37.24;71471.53;10462563;28;20184;-75
2023/08/21 11:36:16;;;;;;;7.38;4.72;;;;;;;-145.68;36.88;71479.53;10462612;28;20643;-76
2023/08/21 11:41:16;;;;;;;5.25;4.50;;;;;;;-145.68;38.17;71533.47;10446453;28;20214;-76
2023/08/21 11:46:18;;;;;;;7.22;4.78;;;;;;;-145.68;38.40;71511.50;10474526;28;20710;-76
2023/08/21 11:51:18;;;;;;;5.15;4.45;;;;;;;-145.68;37.21;71419.59;10493371;28;20189;-76
2023/08/21 11:56:19;;;;;;;8.95;4.88;;;;;;;-145.68;35.00;71309.72;10492227;28;20197;-76
2023/08/21 12:01:19;;;;;;;8.52;4.53;;;;;;;-145.68;36.28;71391.63;10493199;28;20690;-76
2023/08/21 12:06:21;;;;;;;6.20;3.95;;;;;;;-145.68;35.37;71385.63;10491531;28;20182;-76
2023/08/21 12:11:21;;;;;;;6.68;4.53;;;;;;;-145.68;34.52;71273.75;10492412;28;20183;-76
2023/08/21 12:16:22;;;;;;;7.90;4.07;;;;;;;-145.68;33.61;71113.94;10499569;28;20577;-76
2023/08/21 12:21:25;;;;;;;7.30;4.20;;;;;;;-145.68;33.14;71093.97;10515904;28;20484;-77
2023/08/21 12:26:25;;;;;;;6.32;4.47;;;;;;;-145.68;37.41;71605.38;10533415;28;20497;-76
2023/08/21 12:31:25;;;;;;;6.93;3.55;;;;;;;-145.68;35.52;71391.63;10520908;28;20194;-76
2023/08/21 12:36:26;;;;;;;5.90;4.07;;;;;;;-145.68;35.65;71401.63;10486264;28;20559;-77
2023/08/21 12:41:26;;;;;;;6.63;4.23;;;;;;;-145.68;37.33;71561.44;10488166;28;20195;-77
2023/08/21 12:46:27;;;;;;;7.53;4.20;;;;;;;-145.68;35.18;71389.63;10468155;28;20508;-76
2023/08/21 12:51:28;;;;;;;7.03;3.90;;;;;;;-145.68;35.90;71409.59;10519268;28;20452;-76
2023/08/21 12:56:29;;;;;;;4.80;3.90;;;;;;;-145.68;34.66;71327.69;10531654;28;20231;-77
2023/08/21 13:01:31;;;;;;;6.15;4.07;;;;;;;-145.68;34.71;71347.66;10532794;28;20612;-76
2023/08/21 13:06:32;;;;;;;9.75;4.70;;;;;;;-145.68;36.36;71525.47;10527207;28;20190;-76
2023/08/21 13:11:32;;;;;;;6.07;3.43;;;;;;;-145.68;36.97;71523.47;10489733;28;20190;-76
2023/08/21 13:16:32;;;;;;;5.82;3.70;;;;;;;-145.68;35.39;71453.56;10489037;28;20509;-75
2023/08/21 13:21:39;;;;;;;5.57;3.37;;;;;;;-145.68;33.11;71273.75;10507478;28;20657;-77
2023/08/21 13:26:39;;;;;;;7.63;3.50;;;;;;;-145.68;34.87;71551.44;10490839;28;20479;-76
2023/08/21 13:31:40;;;;;;;6.80;3.95;;;;;;;-145.68;36.44;71557.44;10489598;28;20187;-78
2023/08/21 13:36:40;;;;;;;5.80;3.50;;;;;;;-145.68;34.62;71347.66;10489072;28;20194;-77
2023/08/21 13:41:41;;;;;;;6.65;3.60;;;;;;;-145.68;34.22;71361.66;10489721;28;20483;-77
2023/08/21 13:46:41;;;;;;;5.72;3.40;;;;;;;-145.68;32.97;71137.91;10486130;28;20582;-77
2023/08/21 13:51:41;;;;;;;11.83;4.40;;;;;;;-145.68;33.54;71205.84;10488826;28;20195;-78
2023/08/21 13:56:42;;;;;;;5.93;3.60;;;;;;;-145.68;33.88;71307.72;10488816;28;20945;-78
2023/08/21 14:01:42;;;;;;;4.93;3.15;;;;;;;-145.68;33.94;71281.75;10489485;28;20445;-77
2023/08/21 14:06:43;;;;;;;5.53;3.47;;;;;;;-145.68;33.72;71261.78;10496793;28;20189;-78
2023/08/21 14:11:43;;;;;;;5.53;3.72;;;;;;;-145.68;33.74;71253.78;10497059;28;20911;-78
2023/08/21 14:16:43;;;;;;;5.00;3.60;;;;;;;-145.68;34.35;71291.75;10496718;28;20225;-77
2023/08/21 14:21:44;;;;;;;6.83;3.63;;;;;;;-145.68;33.45;71225.81;10496330;28;20447;-77
2023/08/21 14:26:44;;;;;;;4.77;3.30;;;;;;;-145.68;32.68;71117.94;10520257;28;20436;-76
2023/08/21 14:31:46;;;;;;;6.90;3.50;;;;;;;-145.68;34.99;71425.59;10505738;28;20928;-76
2023/08/21 14:36:48;;;;;;;8.52;3.70;;;;;;;-145.68;34.66;71377.63;10492815;28;20425;-77
2023/08/21 14:41:54;;;;;;;6.40;3.80;;;;;;;-145.68;34.98;71441.56;10491573;28;20193;-77
2023/08/21 14:46:55;;;;;;;7.13;3.33;;;;;;;-145.68;35.67;71493.50;10491811;28;20257;-76
2023/08/21 14:51:55;;;;;;;7.68;3.60;;;;;;;-145.68;36.38;71561.44;10457595;28;20639;-75
2023/08/21 14:56:56;;;;;;;6.40;3.72;;;;;;;-145.68;36.91;71633.34;10489353;28;20754;-75
2023/08/21 15:01:56;;;;;;;7.17;4.10;;;;;;;-145.68;37.79;71773.22;10507123;28;20198;-75
2023/08/21 15:06:57;;;;;;;7.72;3.90;;;;;;;-145.68;39.71;71901.09;10528374;28;20437;-75
2023/08/21 15:11:57;;;;;;;6.17;3.70;;;;;;;-145.68;39.28;71809.16;10476944;28;20182;-75
2023/08/21 15:16:57;;;;;;;5.47;3.67;;;;;;;-145.68;38.20;71765.22;10492554;28;20465;-75
2023/08/21 15:21:58;;;;;;;4.97;3.47;;;;;;;-145.68;38.48;71735.25;10495408;28;20187;-76
2023/08/21 15:26:58;;;;;;;6.68;3.83;;;;;;;-145.68;37.43;71635.34;10494133;28;20441;-75
2023/08/21 15:31:59;;;;;;;5.50;3.40;;;;;;;-145.68;34.27;71279.75;10494810;28;20190;-76
2023/08/21 15:36:59;;;;;;;4.33;3.10;;;;;;;-145.68;34.78;71429.59;10494425;28;20479;-75
2023/08/21 15:41:59;;;;;;;5.30;3.20;;;;;;;-145.68;33.11;71241.78;10495154;28;20448;-76
2023/08/21 15:47:00;;;;;;;4.07;3.13;;;;;;;-145.68;33.75;71317.72;10478028;28;20223;-76
2023/08/21 15:52:00;;;;;;;6.93;3.70;;;;;;;-145.68;34.58;71477.53;10476724;28;20429;-76
2023/08/21 15:57:01;;;;;;;5.57;3.10;;;;;;;-145.68;34.76;71457.56;10493825;28;20557;-75
2023/08/21 16:02:01;;;;;;;6.47;3.45;;;;;;;-145.68;33.38;71291.75;10494269;28;20445;-76
2023/08/21 16:07:01;;;;;;;4.40;3.47;;;;;;;-145.68;35.26;71469.53;10493849;28;20183;-75
2023/08/21 16:12:03;;;;;;;7.82;3.35;;;;;;;-145.68;35.91;71617.38;10494454;28;20928;-75
2023/08/21 16:17:06;;;;;;;7.22;3.25;;;;;;;-145.68;35.55;71509.50;10475041;28;20213;-75
2023/08/21 16:22:06;;;;;;;5.00;3.63;;;;;;;-145.68;37.64;71731.25;10493671;28;20202;-76
2023/08/21 16:27:07;;;;;;;7.32;3.55;;;;;;;-145.68;37.42;71725.25;10491612;28;20179;-76
2023/08/21 16:32:08;;;;;;;6.60;3.50;;;;;;;-145.68;37.30;71695.28;10493452;28;20183;-75
2023/08/21 16:37:08;;;;;;;8.82;3.42;;;;;;;-145.68;37.08;71673.31;10492544;28;20214;-75
2023/08/21 16:42:08;;;;;;;8.00;3.80;;;;;;;-145.68;39.51;71841.13;10492443;28;20218;-75
2023/08/21 16:47:09;;;;;;;4.78;3.78;;;;;;;-145.68;41.67;72024.97;10491984;28;20980;-74
2023/08/21 16:52:09;;;;;;;6.25;4.10;;;;;;;-145.68;42.60;72090.91;10492391;28;20188;-74
2023/08/21 16:57:10;;;;;;;9.85;4.43;;;;;;;-145.68;43.74;72184.81;10492399;28;20215;-75
2023/08/21 17:02:11;;;;;;;6.55;4.25;;;;;;;-145.68;44.37;72200.78;10492144;28;20191;-75
2023/08/21 17:07:11;;;;;;;7.57;3.90;;;;;;;-145.68;45.23;72246.75;10491989;28;20213;-75
2023/08/21 17:12:12;;;;;;;7.85;4.10;;;;;;;-145.68;45.73;72276.72;10492086;28;20437;-74
2023/08/21 17:17:12;;;;;;;7.07;4.13;;;;;;;-145.68;46.35;72304.69;10491324;28;20213;-74
2023/08/21 17:22:13;;;;;;;7.10;3.75;;;;;;;-145.68;47.17;72362.66;10492276;28;20197;-75
2023/08/21 17:27:13;;;;;;;7.53;4.10;;;;;;;-145.68;46.14;72336.66;10490929;28;20183;-74
2023/08/21 17:32:15;;;;;;;4.20;3.80;;;;;;;-145.68;45.96;72316.69;10491547;28;20195;-75
2023/08/21 17:37:17;;;;;;;7.78;4.40;;;;;;;-145.68;46.83;72336.66;10491762;28;20198;-75
2023/08/21 17:42:17;;;;;;;5.72;5.00;;;;;;;-145.68;47.78;72350.66;10499950;28;20191;-75
2023/08/21 17:47:17;;;;;;;7.05;4.88;;;;;;;-145.68;49.65;72426.59;10499349;28;20658;-74
2023/08/21 17:52:18;;;;;;;12.67;7.53;;;;;;;-145.68;51.21;72468.56;10499666;28;20199;-74
2023/08/21 17:57:19;;;;;;;11.90;7.72;;;;;;;-145.68;55.36;72616.44;10499232;28;20471;-74
2023/08/21 18:02:19;;;;;;;11.27;5.20;;;;;;;-145.68;56.81;72664.38;10498983;28;20248;-75
2023/08/21 18:07:19;;;;;;;9.95;4.97;;;;;;;-145.68;59.33;72728.34;10498918;28;20179;-74
2023/08/21 18:12:20;;;;;;;7.50;5.00;;;;;;;-145.68;60.34;72732.34;10498557;28;20183;-74
2023/08/21 18:17:20;;;;;;;7.40;5.07;;;;;;;-145.68;61.43;72806.28;10498387;28;20679;-75
2023/08/21 18:22:21;;;;;;;8.52;5.35;;;;;;;-145.68;63.06;72804.28;10497927;28;20565;-74
2023/08/21 18:27:21;;;;;;;6.97;5.35;;;;;;;-145.68;64.55;72822.25;10497735;28;20183;-74
2023/08/21 18:32:21;;;;;;;8.23;6.75;;;;;;;-145.68;66.87;72896.19;10498116;28;20187;-74
2023/08/21 18:37:23;;;;;;;6.55;5.15;;;;;;;-145.68;68.14;72890.22;10490029;28;20315;-74
2023/08/21 18:42:23;;;;;;;10.55;7.00;;;;;;;-145.68;71.71;72938.16;10456419;28;20192;-74
2023/08/21 18:47:25;;;;;;;13.02;10.15;;;;;;;-145.68;75.88;72996.13;10454250;28;20228;-74
2023/08/21 18:52:26;;;;;;;9.00;8.10;;;;;;;-145.68;76.52;72984.13;10453688;28;20188;-74
2023/08/21 18:57:27;;;;;;;13.45;6.18;;;;;;;-145.68;76.52;72988.13;10453858;28;20220;-74
2023/08/21 19:02:27;;;;;;;11.48;5.80;;;;;;;-145.68;79.10;73010.13;10439866;28;20192;-75
2023/08/21 19:07:28;;;;;;;11.07;7.25;;;;;;;-145.68;82.93;73046.09;10459241;28;20357;-74
2023/08/21 19:12:28;;;;;;;8.98;6.40;;;;;;;-145.68;81.45;73018.13;10455389;28;20221;-74
2023/08/21 19:17:29;;;;;;;11.45;8.18;;;;;;;-145.68;81.78;73034.09;10453587;28;20220;-74
2023/08/21 19:22:29;;;;;;;10.52;7.20;;;;;;;-145.68;85.24;73058.09;10453084;28;20184;-75
2023/08/21 19:27:29;;;;;;;14.75;6.55;;;;;;;-145.68;85.94;73066.09;10452815;28;20546;-75
2023/08/21 19:32:30;;;;;;;12.15;7.32;;;;;;;-145.68;86.50;73072.06;10452904;28;20196;-75
2023/08/21 19:37:31;;;;;;;8.73;6.28;;;;;;;-145.68;88.13;73066.09;10452685;28;20277;-74
2023/08/21 19:42:31;;;;;;;7.97;6.93;;;;;;;-145.68;88.09;73080.06;10452340;28;20769;-74
2023/08/21 19:47:32;;;;;;;9.63;6.28;;;;;;;-145.68;87.67;73080.06;10451526;28;20234;-76
2023/08/21 19:52:32;;;;;;;10.50;7.13;;;;;;;-145.68;90.63;73114.03;10452290;28;20199;-75
2023/08/21 19:57:32;;;;;;;8.32;6.97;;;;;;;-145.68;92.64;73134.03;10451436;28;20272;-75
2023/08/21 20:02:33;;;;;;;10.52;7.22;;;;;;;-145.68;94.05;73140.03;10451587;28;20187;-76
2023/08/21 20:07:33;;;;;;;25.63;15.90;;;;;;;-145.68;97.52;73188.00;10451027;28;20728;-75
2023/08/21 20:12:34;;;;;;;12.02;8.95;;;;;;;-145.68;98.47;73178.00;10451813;28;20553;-75
2023/08/21 20:17:35;;;;;;;12.57;8.20;;;;;;;-145.68;100.00;73198.00;10450393;28;20272;-75
2023/08/21 20:22:35;;;;;;;9.35;8.43;;;;;;;-145.68;100.00;73217.97;10451261;28;20191;-75
2023/08/21 20:27:36;;;;;;;12.43;8.25;;;;;;;-145.68;100.00;73227.97;10450841;28;20183;-75
2023/08/21 20:32:36;;;;;;;14.18;9.77;;;;;;;-145.68;100.00;73249.94;10450337;28;20192;-75
2023/08/21 20:37:37;;;;;;;15.13;8.40;;;;;;;-145.68;100.00;73247.97;10450406;28;20247;-75
2023/08/21 20:42:37;;;;;;;16.38;8.63;;;;;;;-145.68;100.00;73265.94;10450331;28;20668;-75
2023/08/21 20:47:38;;;;;;;12.07;7.97;;;;;;;-145.68;100.00;73245.97;10438360;28;20225;-74
2023/08/21 20:52:39;;;;;;;11.13;8.75;;;;;;;-145.68;100.00;73259.94;10478790;28;20265;-74
2023/08/21 20:57:40;;;;;;;10.93;8.77;;;;;;;-145.68;100.00;73263.94;10488168;28;20215;-75
2023/08/21 21:02:40;;;;;;;15.10;9.75;;;;;;;-145.68;100.00;73279.94;10488346;28;20195;-75
2023/08/21 21:07:41;;;;;;;15.23;10.00;;;;;;;-145.68;100.00;73293.94;10488463;28;20191;-74
2023/08/21 21:12:41;;;;;;;12.52;9.93;;;;;;;-145.68;100.00;73307.91;10474551;28;20199;-74
2023/08/21 21:17:42;;;;;;;19.10;10.32;;;;;;;-145.68;100.00;73295.94;10486462;28;20641;-74
2023/08/21 21:28:47;;;;;;;15.02;10.60;;;;;;;-145.68;100.00;73321.91;10478372;28;20223;-74
2023/08/21 21:33:52;;;;;;;12.68;11.07;;;;;;;-145.68;100.00;73333.91;10487899;28;20187;-75
2023/08/21 21:38:52;;;;;;;15.27;10.77;;;;;;;-145.68;100.00;73339.91;10458922;28;20219;-75
2023/08/21 21:43:53;;;;;;;17.10;11.98;;;;;;;-145.68;100.00;73329.91;10453053;28;20191;-75
2023/08/21 21:48:53;;;;;;;15.10;12.18;;;;;;;-145.68;100.00;73331.91;10448373;28;20281;-74
2023/08/21 21:53:54;;;;;;;15.00;11.05;;;;;;;-145.68;100.00;73349.88;10474297;28;20191;-74
2023/08/21 21:58:54;;;;;;;16.02;11.68;;;;;;;-145.68;100.00;73347.88;10467830;28;20256;-75
2023/08/21 22:03:54;;;;;;;15.68;11.77;;;;;;;-145.68;100.00;73337.91;10488948;28;20195;-74
2023/08/21 22:08:55;;;;;;;15.63;12.02;;;;;;;-145.68;100.00;73343.88;10490722;28;20743;-74
2023/08/21 22:13:56;;;;;;;17.85;11.80;;;;;;;-145.68;100.00;73319.91;10490818;28;20523;-75
2023/08/21 22:18:56;;;;;;;13.57;11.27;;;;;;;-145.68;100.00;73319.91;10490462;28;20329;-75
2023/08/21 22:23:56;;;;;;;16.40;11.23;;;;;;;-145.68;100.00;73319.91;10492457;28;20278;-75
2023/08/21 22:28:57;;;;;;;20.65;12.35;;;;;;;-145.68;100.00;73311.91;10497704;28;20647;-74
2023/08/21 22:33:57;;;;;;;17.73;12.50;;;;;;;-145.68;100.00;73313.91;10497531;28;20199;-75
2023/08/21 22:38:57;;;;;;;21.02;12.73;;;;;;;-145.68;100.00;73307.91;10497353;28;20223;-74